Time;durP1;ratioP1;P1;durP2;ratioP2;P2;SDS_P1;SDS_P2;PMS_P1;PMS_P2;Temp;Humidity;BMP_temperature;BMP_pressure;BME280_temperature;BME280_humidity;BME280_pressure;Samples;Min_cycle;Max_cycle;Signal;HPM_P1;HPM_P2
2022/01/16 00:04:35;;;;;;;10.73;3.53;;;0.70;99.90;;;;;;5073876;28;20572;-71
2022/01/16 00:07:04;;;;;;;12.83;4.17;;;0.70;99.90;;;;;;5073937;28;20482;-70
2022/01/16 00:09:32;;;;;;;7.50;3.07;;;0.70;99.90;;;;;;5074082;28;20874;-70
2022/01/16 00:12:00;;;;;;;10.00;3.87;;;0.70;99.90;;;;;;5074815;28;20885;-70
2022/01/16 00:14:30;;;;;;;9.33;2.60;;;0.70;99.90;;;;;;5074625;28;20450;-70
2022/01/16 00:16:57;;;;;;;9.93;4.20;;;0.70;99.90;;;;;;5074153;28;20520;-70
2022/01/16 00:19:24;;;;;;;12.37;4.33;;;0.80;99.90;;;;;;5074275;28;20544;-71
2022/01/16 00:21:53;;;;;;;9.53;3.80;;;0.80;99.90;;;;;;5073308;28;20470;-71
2022/01/16 00:24:20;;;;;;;8.87;3.07;;;0.80;99.90;;;;;;5073994;28;20483;-70
2022/01/16 00:26:46;;;;;;;11.73;2.87;;;0.80;99.90;;;;;;5074364;28;20553;-69
2022/01/16 00:29:14;;;;;;;6.83;3.83;;;0.70;99.90;;;;;;5074315;28;20554;-69
2022/01/16 00:31:42;;;;;;;10.43;3.63;;;0.70;99.90;;;;;;5074944;28;20750;-69
2022/01/16 00:34:11;;;;;;;11.43;4.37;;;0.80;99.90;;;;;;5075039;28;20521;-69
2022/01/16 00:36:38;;;;;;;7.27;2.00;;;1.00;99.90;;;;;;5075352;28;20912;-70
2022/01/16 00:39:07;;;;;;;8.40;4.30;;;1.00;99.90;;;;;;5075742;28;20534;-70
2022/01/16 00:41:35;;;;;;;9.77;3.33;;;1.00;99.90;;;;;;5076469;28;20455;-69
2022/01/16 00:44:04;;;;;;;5.60;2.40;;;0.90;99.90;;;;;;5076323;28;20451;-69
2022/01/16 00:46:31;;;;;;;6.67;2.43;;;0.90;99.90;;;;;;5076295;28;20519;-69
2022/01/16 00:48:59;;;;;;;11.60;3.07;;;1.00;99.90;;;;;;5076021;28;20488;-69
2022/01/16 00:51:26;;;;;;;8.90;4.43;;;0.90;99.90;;;;;;5074974;28;20545;-69
2022/01/16 00:53:53;;;;;;;10.70;2.97;;;0.80;99.90;;;;;;5075155;28;20490;-69
2022/01/16 00:56:22;;;;;;;7.83;4.20;;;0.70;99.90;;;;;;5074545;28;20429;-69
2022/01/16 00:58:49;;;;;;;8.87;2.50;;;0.70;99.90;;;;;;5075348;28;20521;-69
2022/01/16 01:01:16;;;;;;;7.53;4.23;;;0.70;99.90;;;;;;5074511;28;20493;-70
2022/01/16 01:03:43;;;;;;;9.30;4.73;;;0.70;99.90;;;;;;5073307;28;20533;-69
2022/01/16 01:06:10;;;;;;;8.73;2.73;;;0.80;99.90;;;;;;5074538;28;20537;-69
2022/01/16 01:08:37;;;;;;;5.63;1.80;;;0.80;99.90;;;;;;5075011;28;20521;-70
2022/01/16 01:11:08;;;;;;;7.00;2.87;;;0.80;99.90;;;;;;5074789;28;20897;-69
2022/01/16 01:13:55;;;;;;;10.03;3.00;;;0.70;99.90;;;;;;5075475;28;20909;-69
2022/01/16 01:16:23;;;;;;;10.30;4.50;;;0.60;99.90;;;;;;5074670;28;20461;-70
2022/01/16 01:18:50;;;;;;;6.73;2.50;;;0.70;99.90;;;;;;5076297;28;20529;-70
2022/01/16 01:21:27;;;;;;;8.20;2.80;;;0.70;99.90;;;;;;5079632;28;20457;-70
2022/01/16 01:23:54;;;;;;;5.50;2.60;;;0.70;99.90;;;;;;5079201;28;20449;-69
2022/01/16 01:26:26;;;;;;;5.10;2.20;;;0.60;99.90;;;;;;5078226;28;20888;-69
2022/01/16 01:28:54;;;;;;;12.80;3.67;;;0.50;99.90;;;;;;5078592;28;20490;-69
2022/01/16 01:31:21;;;;;;;4.67;2.57;;;0.50;99.90;;;;;;5078082;28;20575;-69
2022/01/16 01:33:48;;;;;;;10.07;4.63;;;0.50;99.90;;;;;;5076259;28;20501;-69
2022/01/16 01:36:15;;;;;;;6.97;3.83;;;0.60;99.90;;;;;;5076460;28;20500;-69
2022/01/16 01:38:42;;;;;;;10.40;4.67;;;0.70;99.90;;;;;;5076521;28;20485;-70
2022/01/16 01:41:09;;;;;;;10.80;4.20;;;0.90;99.90;;;;;;5076254;28;20541;-70
2022/01/16 01:51:50;;;;;;;9.43;3.00;;;1.40;99.90;;;;;;5078321;28;20899;-69
2022/01/16 01:54:17;;;;;;;14.47;4.00;;;1.50;99.90;;;;;;5078705;28;20820;-69
2022/01/16 01:56:44;;;;;;;9.93;4.37;;;1.40;99.90;;;;;;5079619;28;20881;-69
2022/01/16 01:59:11;;;;;;;12.93;4.00;;;1.30;99.90;;;;;;5078978;28;20921;-70
2022/01/16 02:01:40;;;;;;;16.40;4.70;;;1.50;99.90;;;;;;5078916;28;20556;-69
2022/01/16 02:04:07;;;;;;;12.70;4.37;;;1.50;99.90;;;;;;5078070;28;20546;-69
2022/01/16 02:06:34;;;;;;;9.83;4.37;;;1.30;99.90;;;;;;5078379;28;20544;-69
2022/01/16 02:09:04;;;;;;;12.10;4.70;;;1.10;99.90;;;;;;5077817;28;20489;-69
2022/01/16 02:11:32;;;;;;;14.60;4.90;;;1.10;99.90;;;;;;5076962;28;20561;-70
2022/01/16 02:14:06;;;;;;;9.77;2.70;;;1.10;99.90;;;;;;5076897;28;20759;-69
2022/01/16 02:28:02;;;;;;;8.27;3.37;;;1.10;99.90;;;;;;5077991;28;20920;-70
2022/01/16 02:35:59;;;;;;;10.30;4.00;;;0.90;99.90;;;;;;5077267;28;20518;-70
2022/01/16 02:38:27;;;;;;;10.13;2.13;;;0.80;99.90;;;;;;5077795;28;20885;-70
2022/01/16 02:40:59;;;;;;;15.07;4.03;;;0.70;99.90;;;;;;5077933;28;20552;-70
2022/01/16 02:43:31;;;;;;;8.57;3.90;;;0.60;99.90;;;;;;5077795;28;20508;-69
2022/01/16 02:48:44;;;;;;;11.57;4.07;;;0.50;99.90;;;;;;5070764;28;20474;-70
2022/01/16 02:51:11;;;;;;;9.60;3.80;;;0.50;99.90;;;;;;5077574;28;20698;-69
2022/01/16 02:53:39;;;;;;;9.23;4.40;;;0.40;99.90;;;;;;5077615;28;20541;-70
2022/01/16 02:56:06;;;;;;;11.87;2.80;;;0.40;99.90;;;;;;5077308;28;20450;-70
2022/01/16 02:58:33;;;;;;;6.27;3.17;;;0.30;99.90;;;;;;5078007;28;20508;-70
2022/01/16 03:01:00;;;;;;;7.00;1.97;;;0.20;99.90;;;;;;5077370;28;20948;-70
2022/01/16 03:03:27;;;;;;;11.47;4.20;;;0.20;99.90;;;;;;5077521;28;20541;-71
2022/01/16 03:05:54;;;;;;;7.43;3.87;;;0.30;99.90;;;;;;5077425;28;20553;-70
2022/01/16 03:08:21;;;;;;;7.90;3.80;;;0.40;99.90;;;;;;5077279;28;21016;-69
2022/01/16 03:11:13;;;;;;;9.50;2.93;;;0.30;99.90;;;;;;5077288;28;20541;-70
2022/01/16 03:13:41;;;;;;;11.53;5.37;;;0.30;99.90;;;;;;5077512;28;20450;-70
2022/01/16 03:16:08;;;;;;;8.53;2.87;;;0.20;99.90;;;;;;5077956;28;20541;-69
2022/01/16 03:24:06;;;;;;;17.60;5.00;;;-0.20;99.90;;;;;;5076973;28;20729;-70
2022/01/16 03:26:34;;;;;;;17.43;4.60;;;-0.20;99.90;;;;;;5077080;28;20803;-69
2022/01/16 03:29:01;;;;;;;8.70;4.10;;;-0.10;99.90;;;;;;5075697;28;20778;-70
2022/01/16 03:31:28;;;;;;;6.87;2.53;;;-0.10;99.90;;;;;;5075203;28;20544;-70
2022/01/16 03:33:55;;;;;;;8.10;3.13;;;-0.20;99.90;;;;;;5075751;28;20490;-70
2022/01/16 03:36:22;;;;;;;10.60;4.67;;;-0.20;99.90;;;;;;5075190;28;20978;-70
2022/01/16 03:38:49;;;;;;;8.60;3.67;;;-0.10;99.90;;;;;;5075633;28;20839;-70
2022/01/16 03:41:16;;;;;;;8.97;2.83;;;-0.10;99.90;;;;;;5075946;28;20972;-69
2022/01/16 03:43:45;;;;;;;8.43;3.43;;;-0.10;99.90;;;;;;5076799;28;20528;-70
2022/01/16 03:46:12;;;;;;;6.27;5.17;;;-0.10;99.90;;;;;;5076690;28;20576;-70
2022/01/16 03:48:39;;;;;;;8.03;2.93;;;-0.20;99.90;;;;;;5077314;28;20565;-70
2022/01/16 03:51:06;;;;;;;9.63;5.53;;;-0.10;99.90;;;;;;5076996;28;20501;-69
2022/01/16 03:53:33;;;;;;;9.00;5.17;;;-0.20;99.90;;;;;;5077562;28;20508;-69
2022/01/16 03:56:00;;;;;;;15.37;4.57;;;-0.20;99.90;;;;;;5078188;28;20542;-69
2022/01/16 03:58:27;;;;;;;9.27;4.40;;;-0.10;99.90;;;;;;5079017;28;20492;-70
2022/01/16 04:00:55;;;;;;;10.37;4.43;;;-0.20;99.90;;;;;;5077885;28;20534;-70
2022/01/16 04:03:22;;;;;;;5.33;3.00;;;-0.20;99.90;;;;;;5076524;28;20550;-70
2022/01/16 04:05:49;;;;;;;11.87;3.07;;;-0.20;99.90;;;;;;5075179;28;20550;-71
2022/01/16 04:08:16;;;;;;;7.60;4.27;;;-0.20;99.90;;;;;;5075147;28;20513;-69
2022/01/16 04:10:42;;;;;;;11.83;3.27;;;-0.20;99.90;;;;;;5075399;28;20541;-69
2022/01/16 04:13:11;;;;;;;8.23;3.90;;;-0.30;99.90;;;;;;5075626;28;20486;-69
2022/01/16 04:15:38;;;;;;;9.77;2.80;;;-0.30;99.90;;;;;;5074986;28;20452;-69
2022/01/16 04:18:07;;;;;;;6.87;2.50;;;-0.30;99.90;;;;;;5075376;28;20451;-69
2022/01/16 04:20:35;;;;;;;9.30;4.23;;;-0.20;99.90;;;;;;5074180;28;20497;-69
2022/01/16 04:23:04;;;;;;;9.23;4.10;;;-0.10;99.90;;;;;;5075635;28;20489;-70
2022/01/16 04:25:32;;;;;;;7.83;3.30;;;-0.10;99.90;;;;;;5075586;28;20483;-70
2022/01/16 04:27:58;;;;;;;10.60;3.13;;;-0.10;99.90;;;;;;5075666;28;20550;-69
2022/01/16 04:30:26;;;;;;;12.50;4.33;;;0.00;99.90;;;;;;5073996;28;20486;-70
2022/01/16 04:32:52;;;;;;;8.70;3.87;;;0.00;99.90;;;;;;5073544;28;20812;-69
2022/01/16 04:35:21;;;;;;;9.40;3.40;;;0.00;99.90;;;;;;5073270;28;20865;-69
2022/01/16 04:37:48;;;;;;;4.20;2.50;;;0.00;99.90;;;;;;5073513;28;20525;-69
2022/01/16 04:40:16;;;;;;;7.77;3.30;;;0.00;99.90;;;;;;5073653;28;20879;-70
2022/01/16 04:45:27;;;;;;;8.50;3.73;;;-0.30;99.90;;;;;;5073617;28;20430;-69
2022/01/16 04:47:55;;;;;;;8.60;2.63;;;-0.40;99.90;;;;;;5076013;28;20489;-70
2022/01/16 04:50:25;;;;;;;9.27;2.93;;;-0.40;99.90;;;;;;5075974;28;20888;-70
2022/01/16 04:52:52;;;;;;;7.83;4.00;;;-0.40;99.90;;;;;;5076554;28;20536;-70
2022/01/16 04:55:22;;;;;;;9.53;2.97;;;-0.40;99.90;;;;;;5079092;28;20482;-70
2022/01/16 04:57:49;;;;;;;10.10;4.17;;;-0.20;99.90;;;;;;5080007;28;20835;-71
2022/01/16 05:00:17;;;;;;;11.50;3.33;;;-0.30;99.90;;;;;;5079909;28;20567;-70
2022/01/16 05:02:44;;;;;;;6.63;1.80;;;-0.40;99.90;;;;;;5079595;28;20454;-70
2022/01/16 05:05:12;;;;;;;4.07;2.40;;;-0.40;99.90;;;;;;5079611;28;20538;-70
2022/01/16 05:07:40;;;;;;;7.70;2.57;;;-0.40;99.90;;;;;;5079529;28;20454;-69
2022/01/16 05:10:09;;;;;;;7.00;2.70;;;-0.40;99.90;;;;;;5079575;28;20995;-69
2022/01/16 05:12:38;;;;;;;8.27;3.27;;;-0.20;99.90;;;;;;5079159;28;20458;-69
2022/01/16 05:17:51;;;;;;;5.90;2.83;;;-0.30;99.90;;;;;;5079560;28;20504;-69
2022/01/16 05:20:18;;;;;;;10.73;2.60;;;-0.30;99.90;;;;;;5079315;28;20470;-69
2022/01/16 05:22:46;;;;;;;8.23;4.03;;;-0.40;99.90;;;;;;5080071;28;20490;-69
2022/01/16 05:25:16;;;;;;;6.20;3.20;;;-0.50;99.90;;;;;;5079702;28;20543;-69
2022/01/16 05:27:43;;;;;;;8.43;2.67;;;-0.50;99.90;;;;;;5079635;28;20466;-70
2022/01/16 05:30:10;;;;;;;7.03;3.10;;;-0.50;99.90;;;;;;5079207;28;20486;-70
2022/01/16 05:32:37;;;;;;;9.20;3.47;;;-0.50;99.90;;;;;;5078335;28;20748;-70
2022/01/16 05:35:05;;;;;;;9.43;3.03;;;-0.50;99.90;;;;;;5079095;28;20981;-69
2022/01/16 05:37:32;;;;;;;6.40;2.63;;;-0.60;99.90;;;;;;5079339;28;20545;-70
2022/01/16 05:40:01;;;;;;;7.27;2.57;;;-0.60;99.90;;;;;;5079044;28;20452;-69
2022/01/16 05:42:28;;;;;;;7.57;2.50;;;-0.60;99.90;;;;;;5078623;28;20548;-70
2022/01/16 05:44:54;;;;;;;10.67;3.57;;;-0.60;99.90;;;;;;5078033;28;20450;-69
2022/01/16 05:47:21;;;;;;;10.70;4.07;;;-0.60;99.90;;;;;;5078367;28;20552;-69
2022/01/16 05:49:48;;;;;;;12.17;3.73;;;-0.70;99.90;;;;;;5077693;28;20644;-69
2022/01/16 05:52:15;;;;;;;9.63;3.27;;;-0.60;99.90;;;;;;5078094;28;20488;-70
2022/01/16 05:54:42;;;;;;;7.93;3.00;;;-0.60;99.90;;;;;;5077601;28;20486;-69
2022/01/16 05:57:13;;;;;;;9.13;3.23;;;-0.60;99.90;;;;;;5078057;28;20455;-70
2022/01/16 05:59:42;;;;;;;8.10;3.97;;;-0.60;99.90;;;;;;5078846;28;20507;-70
2022/01/16 06:02:09;;;;;;;4.47;2.13;;;-0.50;99.90;;;;;;5077493;28;20490;-69
2022/01/16 06:04:36;;;;;;;11.87;4.90;;;-0.50;99.90;;;;;;5076909;28;20541;-69
2022/01/16 06:07:05;;;;;;;7.03;3.97;;;-0.60;99.90;;;;;;5077276;28;20494;-69
2022/01/16 06:09:31;;;;;;;9.90;4.03;;;-0.70;99.90;;;;;;5076227;28;20482;-70
2022/01/16 06:11:59;;;;;;;7.57;2.97;;;-0.80;99.90;;;;;;5076448;28;20545;-69
2022/01/16 06:14:27;;;;;;;4.80;3.23;;;-0.80;99.90;;;;;;5076183;28;20819;-69
2022/01/16 06:16:54;;;;;;;7.00;2.20;;;-0.80;99.90;;;;;;5076030;28;20802;-70
2022/01/16 06:19:21;;;;;;;7.87;4.10;;;-0.80;99.90;;;;;;5076178;28;20519;-70
2022/01/16 06:21:48;;;;;;;6.60;2.80;;;-0.90;99.90;;;;;;5076940;28;20454;-70
2022/01/16 06:24:15;;;;;;;6.23;2.80;;;-0.90;99.90;;;;;;5076348;28;20542;-69
2022/01/16 06:26:43;;;;;;;13.90;3.97;;;-1.00;99.90;;;;;;5076649;28;20568;-70
2022/01/16 06:29:10;;;;;;;9.43;4.10;;;-1.00;99.90;;;;;;5076918;28;20581;-70
2022/01/16 06:31:39;;;;;;;9.60;4.07;;;-1.00;99.90;;;;;;5077125;28;20941;-70
2022/01/16 06:34:06;;;;;;;7.17;3.60;;;-1.00;99.90;;;;;;5076676;28;20814;-70
2022/01/16 06:36:35;;;;;;;6.30;2.40;;;-1.00;99.90;;;;;;5076790;28;20458;-69
2022/01/16 06:39:04;;;;;;;8.67;3.90;;;-0.90;99.90;;;;;;5076510;28;20762;-70
2022/01/16 06:41:31;;;;;;;6.77;4.00;;;-0.90;99.90;;;;;;5076576;28;20454;-70
2022/01/16 06:43:59;;;;;;;6.53;2.93;;;-0.90;99.90;;;;;;5076097;28;20529;-70
2022/01/16 06:46:26;;;;;;;10.73;2.80;;;-1.00;99.90;;;;;;5075932;28;20932;-69
2022/01/16 06:48:54;;;;;;;6.27;3.70;;;-1.00;99.90;;;;;;5076389;28;20573;-70
2022/01/16 06:51:22;;;;;;;7.70;3.03;;;-1.00;99.90;;;;;;5075965;28;20561;-70
2022/01/16 06:53:50;;;;;;;13.93;2.83;;;-1.10;99.90;;;;;;5076137;28;20929;-70
2022/01/16 06:56:17;;;;;;;12.03;3.50;;;-1.10;99.90;;;;;;5076234;28;20530;-70
2022/01/16 06:58:44;;;;;;;3.30;1.80;;;-1.10;99.90;;;;;;5077100;28;20558;-70
2022/01/16 07:01:13;;;;;;;8.80;2.83;;;-1.10;99.90;;;;;;5077444;28;20556;-70
2022/01/16 07:03:41;;;;;;;7.40;2.20;;;-1.10;99.90;;;;;;5078036;28;20451;-69
2022/01/16 07:06:10;;;;;;;7.37;3.63;;;-1.20;99.90;;;;;;5077574;28;20911;-70
2022/01/16 07:08:37;;;;;;;5.30;2.30;;;-1.20;99.90;;;;;;5077709;28;20541;-69
2022/01/16 07:11:04;;;;;;;5.53;3.57;;;-1.20;99.90;;;;;;5077259;28;20940;-69
2022/01/16 07:13:31;;;;;;;8.37;5.00;;;-1.10;99.90;;;;;;5077172;28;20534;-70
2022/01/16 07:15:58;;;;;;;7.53;3.20;;;-1.10;99.90;;;;;;5076977;28;20549;-69
2022/01/16 07:18:25;;;;;;;10.60;3.33;;;-1.10;99.90;;;;;;5077118;28;20482;-70
2022/01/16 07:20:52;;;;;;;10.43;4.87;;;-1.10;99.90;;;;;;5077578;28;20908;-69
2022/01/16 07:23:20;;;;;;;14.27;4.60;;;-1.10;99.90;;;;;;5076572;28;20537;-69
2022/01/16 07:25:52;;;;;;;6.33;2.97;;;-1.10;99.90;;;;;;5076978;28;20450;-69
2022/01/16 07:28:19;;;;;;;6.80;2.60;;;-0.80;99.90;;;;;;5077071;28;20960;-71
2022/01/16 07:30:47;;;;;;;4.73;2.90;;;-0.70;99.90;;;;;;5076672;28;20588;-70
2022/01/16 07:33:14;;;;;;;7.83;3.90;;;-0.60;99.90;;;;;;5076853;28;20950;-69
2022/01/16 07:35:41;;;;;;;7.83;2.67;;;-0.50;99.90;;;;;;5076314;28;20857;-68
2022/01/16 07:38:09;;;;;;;6.30;4.30;;;-0.30;99.90;;;;;;5076747;28;20497;-70
2022/01/16 07:40:38;;;;;;;6.60;2.33;;;-0.20;99.90;;;;;;5076747;28;20504;-69
2022/01/16 07:43:05;;;;;;;8.20;3.73;;;-0.10;99.90;;;;;;5076745;28;20451;-69
2022/01/16 07:45:33;;;;;;;5.67;3.67;;;-0.10;99.90;;;;;;5076901;28;20515;-69
2022/01/16 07:48:00;;;;;;;11.33;3.67;;;-0.10;99.90;;;;;;5076412;28;20539;-69
2022/01/16 07:50:27;;;;;;;8.10;4.00;;;0.00;99.90;;;;;;5076542;28;20573;-70
2022/01/16 07:52:54;;;;;;;9.40;2.30;;;0.10;99.90;;;;;;5076456;28;20557;-69
2022/01/16 07:55:24;;;;;;;6.70;3.57;;;0.20;99.90;;;;;;5076197;28;20533;-70
2022/01/16 07:57:52;;;;;;;8.20;2.20;;;0.30;99.90;;;;;;5076727;28;20944;-69
2022/01/16 08:00:20;;;;;;;13.03;4.90;;;0.40;99.90;;;;;;5076391;28;20442;-70
2022/01/16 08:02:47;;;;;;;8.00;4.03;;;0.40;99.90;;;;;;5075244;28;20758;-70
2022/01/16 08:05:15;;;;;;;7.30;4.23;;;0.40;99.90;;;;;;5075379;28;20884;-69
2022/01/16 08:07:42;;;;;;;7.57;2.50;;;0.40;99.90;;;;;;5076196;28;21056;-69
2022/01/16 08:10:09;;;;;;;6.80;3.73;;;0.30;99.90;;;;;;5076095;28;20575;-69
2022/01/16 08:12:36;;;;;;;10.20;3.20;;;0.20;99.90;;;;;;5076004;28;20537;-70
2022/01/16 08:15:07;;;;;;;10.43;2.93;;;0.20;99.90;;;;;;5076107;28;20478;-69
2022/01/16 08:17:36;;;;;;;7.43;2.97;;;0.30;99.90;;;;;;5076656;28;20853;-69
2022/01/16 08:20:03;;;;;;;16.43;4.60;;;0.40;99.90;;;;;;5076253;28;20482;-70
2022/01/16 08:22:33;;;;;;;9.30;4.10;;;0.40;99.90;;;;;;5076613;28;20827;-71
2022/01/16 08:25:00;;;;;;;6.13;3.90;;;0.30;99.90;;;;;;5076668;28;20525;-69
2022/01/16 08:27:27;;;;;;;8.50;2.70;;;0.40;99.90;;;;;;5076744;28;20940;-69
2022/01/16 08:29:54;;;;;;;10.67;4.53;;;0.40;99.90;;;;;;5077645;28;20875;-69
2022/01/16 08:32:22;;;;;;;5.30;2.93;;;0.10;99.90;;;;;;5078679;28;20835;-69
2022/01/16 08:34:49;;;;;;;8.47;4.77;;;0.10;99.90;;;;;;5078127;28;20516;-69
2022/01/16 08:37:16;;;;;;;5.40;3.37;;;0.00;99.90;;;;;;5078116;28;20537;-69
2022/01/16 08:39:43;;;;;;;8.80;3.83;;;-0.10;99.90;;;;;;5078409;28;20541;-69
2022/01/16 08:42:10;;;;;;;11.37;4.40;;;-0.20;99.90;;;;;;5078847;28;20490;-69
2022/01/16 08:44:39;;;;;;;12.50;7.78;;;-0.20;99.90;;;;;;5078100;28;20804;-69
2022/01/16 08:47:07;;;;;;;14.98;9.75;;;-0.10;99.90;;;;;;5078478;28;20441;-70
2022/01/16 08:49:36;;;;;;;14.55;10.40;;;0.00;99.90;;;;;;5077109;28;20739;-70
2022/01/16 08:52:19;;;;;;;12.90;8.40;;;0.40;99.90;;;;;;5076211;28;20893;-72
2022/01/16 08:54:46;;;;;;;13.38;7.78;;;0.60;99.90;;;;;;5077425;28;20407;-72
2022/01/16 08:57:13;;;;;;;13.73;8.60;;;0.80;99.90;;;;;;5077477;28;20459;-72
2022/01/16 08:59:40;;;;;;;11.95;7.95;;;0.90;99.90;;;;;;5077469;28;20795;-71
2022/01/16 09:02:15;;;;;;;11.75;8.30;;;0.80;99.90;;;;;;5076819;28;20431;-70
2022/01/16 09:04:58;;;;;;;10.88;7.68;;;0.80;99.90;;;;;;5076016;28;20522;-70
2022/01/16 09:07:26;;;;;;;11.48;7.90;;;1.00;99.90;;;;;;5077122;28;20431;-71
2022/01/16 09:10:08;;;;;;;13.27;8.10;;;1.20;99.90;;;;;;5076699;28;20459;-71
2022/01/16 09:12:40;;;;;;;10.70;7.77;;;0.90;99.90;;;;;;5077064;28;20716;-71
2022/01/16 09:15:11;;;;;;;14.77;9.07;;;0.70;99.90;;;;;;5072038;28;20424;-70
2022/01/16 09:17:45;;;;;;;18.02;9.95;;;0.40;99.90;;;;;;5076806;28;20510;-70
2022/01/16 09:20:45;;;;;;;13.98;8.50;;;0.30;99.90;;;;;;5057471;28;20429;-70
2022/01/16 09:23:23;;;;;;;14.47;8.77;;;0.40;99.90;;;;;;5028921;28;20522;-69
2022/01/16 09:26:04;;;;;;;14.15;9.18;;;0.40;99.90;;;;;;5075766;28;20857;-71
2022/01/16 09:28:38;;;;;;;12.10;8.07;;;0.40;99.90;;;;;;5077174;28;20514;-70
2022/01/16 09:31:05;;;;;;;14.10;9.13;;;0.50;99.90;;;;;;5077527;28;20436;-70
2022/01/16 09:33:48;;;;;;;13.10;8.97;;;0.60;99.90;;;;;;5083867;28;20434;-70
2022/01/16 09:36:15;;;;;;;12.17;7.83;;;0.70;99.90;;;;;;5059424;28;20421;-71
2022/01/16 09:38:43;;;;;;;14.20;9.57;;;0.80;99.90;;;;;;5057142;28;20437;-70
2022/01/16 09:41:10;;;;;;;11.73;7.70;;;0.80;99.90;;;;;;5057913;28;20433;-69
2022/01/16 09:43:38;;;;;;;9.87;5.43;;;1.00;99.90;;;;;;5057919;28;20517;-71
2022/01/16 09:46:07;;;;;;;8.60;5.07;;;1.20;99.90;;;;;;5058168;28;20542;-70
2022/01/16 09:48:35;;;;;;;7.57;5.03;;;1.30;99.90;;;;;;5058919;28;20461;-71
2022/01/16 09:51:03;;;;;;;8.57;4.70;;;1.40;99.90;;;;;;5058400;28;20559;-72
2022/01/16 09:53:33;;;;;;;7.27;3.80;;;1.50;99.90;;;;;;5058792;28;20882;-71
2022/01/16 09:56:02;;;;;;;8.40;3.87;;;1.60;99.90;;;;;;5058597;28;20513;-70
2022/01/16 09:58:29;;;;;;;4.87;3.00;;;1.60;99.90;;;;;;5058561;28;20882;-71
2022/01/16 10:00:56;;;;;;;6.17;3.57;;;1.40;99.90;;;;;;5058925;28;20443;-72
2022/01/16 10:03:36;;;;;;;6.80;3.20;;;1.50;99.90;;;;;;5057693;28;20498;-70
2022/01/16 10:06:13;;;;;;;7.07;4.87;;;1.60;99.90;;;;;;5056003;28;20453;-70
2022/01/16 10:08:41;;;;;;;13.93;4.43;;;1.70;99.90;;;;;;5056915;28;20541;-70
2022/01/16 10:11:35;;;;;;;12.27;5.83;;;1.60;99.90;;;;;;5057781;28;20483;-69
2022/01/16 10:14:08;;;;;;;6.20;2.90;;;1.70;99.90;;;;;;5057360;28;20460;-70
2022/01/16 10:16:38;;;;;;;11.07;5.10;;;1.80;99.90;;;;;;5056714;28;20447;-71
2022/01/16 10:19:25;;;;;;;10.97;3.50;;;1.80;99.90;;;;;;5057335;28;20459;-69
2022/01/16 10:21:54;;;;;;;8.20;4.47;;;1.70;99.90;;;;;;5057250;28;20440;-69
2022/01/16 10:24:24;;;;;;;10.97;4.47;;;1.80;99.90;;;;;;5057537;28;20737;-69
2022/01/16 10:27:14;;;;;;;10.60;3.07;;;2.00;99.90;;;;;;5057588;28;20451;-71
2022/01/16 10:29:44;;;;;;;7.03;4.90;;;2.20;99.90;;;;;;5057341;28;20459;-70
2022/01/16 10:32:13;;;;;;;6.37;3.40;;;2.40;99.90;;;;;;5054657;28;20454;-70
2022/01/16 10:34:43;;;;;;;10.03;5.27;;;2.50;99.90;;;;;;5063470;28;20485;-69
2022/01/16 10:37:22;;;;;;;15.50;5.77;;;2.40;99.90;;;;;;5075575;28;20439;-69
2022/01/16 10:39:58;;;;;;;8.63;4.57;;;2.40;99.90;;;;;;5074747;28;20551;-71
2022/01/16 10:42:28;;;;;;;9.70;5.40;;;2.40;99.90;;;;;;5072873;28;20755;-69
2022/01/16 10:45:02;;;;;;;7.43;3.60;;;2.60;99.90;;;;;;5075457;28;20468;-69
2022/01/16 10:47:33;;;;;;;8.13;4.70;;;2.90;99.90;;;;;;5075427;28;20743;-69
2022/01/16 10:50:08;;;;;;;8.07;3.57;;;3.10;99.90;;;;;;5075166;28;20894;-69
2022/01/16 10:52:57;;;;;;;8.40;3.90;;;3.30;99.90;;;;;;5074981;28;20500;-70
2022/01/16 10:55:33;;;;;;;8.97;5.50;;;3.60;99.90;;;;;;5073201;28;20417;-69
2022/01/16 10:58:07;;;;;;;11.50;6.20;;;3.60;99.90;;;;;;5072637;28;20454;-69
2022/01/16 11:00:34;;;;;;;11.77;4.90;;;3.30;99.90;;;;;;5077098;28;20896;-70
2022/01/16 11:03:03;;;;;;;6.30;4.53;;;3.10;99.90;;;;;;5076408;28;20512;-69
2022/01/16 11:05:35;;;;;;;9.43;4.50;;;2.80;99.90;;;;;;5077075;28;20483;-69
2022/01/16 11:08:03;;;;;;;13.40;5.33;;;2.60;99.90;;;;;;5076841;28;20489;-69
2022/01/16 11:10:32;;;;;;;10.07;4.23;;;2.60;99.90;;;;;;5076969;28;20509;-72
2022/01/16 11:13:01;;;;;;;8.47;5.17;;;2.70;99.90;;;;;;5070923;28;20546;-71
2022/01/16 11:15:32;;;;;;;9.27;4.07;;;2.80;99.90;;;;;;5057699;28;20811;-72
2022/01/16 11:18:00;;;;;;;10.40;5.00;;;2.90;99.90;;;;;;5071986;28;20465;-70
2022/01/16 11:20:31;;;;;;;8.13;4.73;;;3.00;99.90;;;;;;5077048;28;20413;-71
2022/01/16 11:23:02;;;;;;;8.53;4.77;;;3.10;99.90;;;;;;5076343;28;20541;-70
2022/01/16 11:25:34;;;;;;;15.37;5.77;;;3.10;99.90;;;;;;5075581;28;20429;-71
2022/01/16 11:28:05;;;;;;;12.07;5.93;;;3.20;99.90;;;;;;5074068;28;20513;-71
2022/01/16 11:30:34;;;;;;;8.63;5.73;;;3.20;99.90;;;;;;5075364;28;20544;-72
2022/01/16 11:33:03;;;;;;;11.23;6.17;;;3.50;99.90;;;;;;5073954;28;20959;-70
2022/01/16 11:35:31;;;;;;;11.80;6.77;;;3.80;99.90;;;;;;5069350;28;20565;-70
2022/01/16 11:38:00;;;;;;;17.40;7.40;;;3.80;99.90;;;;;;5071975;28;20462;-71
2022/01/16 11:40:38;;;;;;;13.10;6.93;;;3.90;99.90;;;;;;5072197;28;20871;-71
2022/01/16 11:43:22;;;;;;;8.80;4.80;;;3.80;99.90;;;;;;5069637;28;20523;-71
2022/01/16 11:46:06;;;;;;;9.60;4.40;;;3.80;99.90;;;;;;5074676;28;20747;-71
2022/01/16 11:48:42;;;;;;;12.77;4.33;;;3.80;99.90;;;;;;5075154;28;20454;-71
2022/01/16 11:51:48;;;;;;;12.77;7.03;;;3.80;99.90;;;;;;5071145;28;20544;-69
2022/01/16 11:54:22;;;;;;;11.97;5.70;;;3.90;99.90;;;;;;5071641;28;20477;-71
2022/01/16 11:56:59;;;;;;;14.60;6.20;;;3.80;99.90;;;;;;5064008;28;20534;-71
2022/01/16 11:59:28;;;;;;;11.40;6.37;;;3.80;99.90;;;;;;5073891;28;21082;-71
2022/01/16 12:01:59;;;;;;;12.50;6.03;;;3.80;99.90;;;;;;5073296;28;20866;-71
2022/01/16 12:04:49;;;;;;;9.00;6.83;;;3.90;99.90;;;;;;5073891;28;21006;-71
2022/01/16 12:07:45;;;;;;;15.57;6.07;;;3.70;99.90;;;;;;5059210;28;20500;-71
2022/01/16 12:10:12;;;;;;;12.63;7.20;;;3.70;99.90;;;;;;5074378;28;20528;-71
2022/01/16 12:12:39;;;;;;;12.33;4.67;;;3.60;99.90;;;;;;5074648;28;20474;-71
2022/01/16 12:15:10;;;;;;;9.80;5.00;;;3.50;99.90;;;;;;5073102;28;20945;-69
2022/01/16 12:17:48;;;;;;;11.83;3.60;;;3.50;99.90;;;;;;5074691;28;20421;-70
2022/01/16 12:20:26;;;;;;;8.30;4.63;;;3.60;99.90;;;;;;5067304;28;20436;-70
2022/01/16 12:22:56;;;;;;;19.53;7.27;;;3.70;99.90;;;;;;5073374;28;20869;-70
2022/01/16 12:25:25;;;;;;;12.03;5.57;;;3.70;99.90;;;;;;5072940;28;20454;-70
2022/01/16 12:27:54;;;;;;;11.87;5.87;;;3.70;99.90;;;;;;5068648;28;20446;-70
2022/01/16 12:30:41;;;;;;;11.27;4.47;;;3.70;99.90;;;;;;5073537;28;20421;-70
2022/01/16 12:33:29;;;;;;;12.90;4.13;;;3.70;99.90;;;;;;5073969;28;20456;-69
2022/01/16 12:36:13;;;;;;;9.47;4.50;;;3.80;99.90;;;;;;5073900;28;20467;-71
2022/01/16 12:38:55;;;;;;;6.30;3.03;;;4.00;99.90;;;;;;5062168;28;20432;-69
2022/01/16 12:41:30;;;;;;;7.37;2.77;;;4.00;99.90;;;;;;5066609;28;20442;-71
2022/01/16 12:44:00;;;;;;;6.27;2.10;;;3.90;99.90;;;;;;5070709;28;20453;-69
2022/01/16 12:46:31;;;;;;;6.37;2.50;;;3.90;99.90;;;;;;5073867;28;20454;-69
2022/01/16 12:49:02;;;;;;;9.20;2.37;;;4.00;99.90;;;;;;5071680;28;20464;-68
2022/01/16 12:51:34;;;;;;;5.27;1.43;;;4.00;99.90;;;;;;5073703;28;20474;-68
2022/01/16 12:54:06;;;;;;;3.67;1.47;;;4.00;99.90;;;;;;5072681;28;20909;-69
2022/01/16 12:56:40;;;;;;;4.73;1.67;;;4.20;99.90;;;;;;5074257;28;20552;-68
2022/01/16 12:59:11;;;;;;;3.20;0.90;;;4.10;99.90;;;;;;5072448;28;20786;-69
2022/01/16 13:01:39;;;;;;;4.73;1.50;;;4.10;99.90;;;;;;5074334;28;20442;-69
2022/01/16 13:04:21;;;;;;;4.53;1.60;;;4.20;99.90;;;;;;5074171;28;20553;-68
2022/01/16 13:06:49;;;;;;;2.63;1.00;;;4.20;99.90;;;;;;5064168;28;20512;-69
2022/01/16 13:09:16;;;;;;;3.47;2.10;;;4.20;99.90;;;;;;5073870;28;20532;-70
2022/01/16 13:11:45;;;;;;;3.30;1.60;;;4.10;99.90;;;;;;5073853;28;20474;-70
2022/01/16 13:14:13;;;;;;;3.07;1.90;;;4.00;99.90;;;;;;5074781;28;20494;-70
2022/01/16 13:16:42;;;;;;;4.83;1.30;;;4.10;99.90;;;;;;5078709;28;20916;-69
2022/01/16 13:19:15;;;;;;;2.47;1.23;;;4.10;99.90;;;;;;5077975;28;20527;-70
2022/01/16 13:21:59;;;;;;;5.20;1.70;;;4.10;99.90;;;;;;5077855;28;20429;-70
2022/01/16 13:24:36;;;;;;;5.27;1.60;;;3.90;99.90;;;;;;5075968;28;20468;-70
2022/01/16 13:27:05;;;;;;;2.00;1.40;;;3.80;99.90;;;;;;5077654;28;20475;-69
2022/01/16 13:29:33;;;;;;;2.87;1.10;;;3.90;99.90;;;;;;5076019;28;20871;-68
2022/01/16 13:32:04;;;;;;;5.03;1.77;;;3.90;99.90;;;;;;5074180;28;20478;-69
2022/01/16 13:34:41;;;;;;;3.00;1.27;;;3.90;99.90;;;;;;5074942;28;20784;-71
2022/01/16 13:37:16;;;;;;;3.30;1.40;;;3.90;99.90;;;;;;5076505;28;20450;-71
2022/01/16 13:39:45;;;;;;;2.20;0.87;;;3.80;99.90;;;;;;5078226;28;20519;-71
2022/01/16 13:42:49;;;;;;;3.00;1.30;;;3.70;99.90;;;;;;5077659;28;20546;-70
2022/01/16 13:45:19;;;;;;;1.40;1.20;;;3.70;99.90;;;;;;5072932;28;20485;-70
2022/01/16 13:47:59;;;;;;;3.17;1.23;;;3.70;99.90;;;;;;5076493;28;20446;-71